KLVM/LVM METAR and TAF weather

Enter ICAO airport designator
Station Type Date Time Source
KLVM METAR 2019/08/26 06:53 UTC NOAA

KLVM 260653Z AUTO 00000KT 10SM CLR 13/03 A3013 RMK AO2 SLP165 T01280028 402830083


Station Type Date Time Source
KLVM Decoded METAR 2019/08/26 06:53 UTC NOAA

Station name not available
Aug 26, 2019 - 02:53 AM EDT / 2019.08.26 0653 UTC
Wind: Calm:0
Visibility: 10 mile(s):0
Sky conditions: clear
Temperature: 55.0 F (12.8 C)
Dew Point: 37.0 F (2.8 C)
Relative Humidity: 50%
Pressure (altimeter): 30.13 in. Hg (1020 hPa)
ob: KLVM 260653Z AUTO 00000KT 10SM CLR 13/03 A3013 RMK AO2 SLP165 T01280028 402830083
cycle: 7

Station Type Date Time Source
KLVM TAF 2019/08/26 06:34 UTC NOAA

TAF KLVM 260532Z 2606/2706 30009KT P6SM SCT090
FM261600 27014G22KT P6SM SCT060
FM270200 VRB06KT P6SM SCT080

Example: see airport list